sensor_id;sensor_type;location;lat;lon;timestamp;P1;durP1;ratioP1;P2;durP2;ratioP2
45254;SDS011;30989;52.078;21.014;2023-08-24T00:02:00;5.78;;;2.22;;
45254;SDS011;30989;52.078;21.014;2023-08-24T00:04:25;7.88;;;2.50;;
45254;SDS011;30989;52.078;21.014;2023-08-24T00:06:51;5.28;;;1.80;;
45254;SDS011;30989;52.078;21.014;2023-08-24T00:09:16;6.97;;;2.28;;
45254;SDS011;30989;52.078;21.014;2023-08-24T00:11:42;4.20;;;2.28;;
45254;SDS011;30989;52.078;21.014;2023-08-24T00:14:07;7.05;;;1.88;;
45254;SDS011;30989;52.078;21.014;2023-08-24T00:16:33;7.60;;;2.15;;
45254;SDS011;30989;52.078;21.014;2023-08-24T00:18:59;3.97;;;2.17;;
45254;SDS011;30989;52.078;21.014;2023-08-24T00:21:24;6.93;;;1.75;;
45254;SDS011;30989;52.078;21.014;2023-08-24T00:23:50;3.70;;;2.13;;
45254;SDS011;30989;52.078;21.014;2023-08-24T00:26:15;5.38;;;2.08;;
45254;SDS011;30989;52.078;21.014;2023-08-24T00:28:44;2.72;;;1.77;;
45254;SDS011;30989;52.078;21.014;2023-08-24T00:31:10;6.03;;;2.55;;
45254;SDS011;30989;52.078;21.014;2023-08-24T00:33:36;5.55;;;2.33;;
45254;SDS011;30989;52.078;21.014;2023-08-24T00:36:02;5.72;;;3.00;;
45254;SDS011;30989;52.078;21.014;2023-08-24T00:38:31;7.25;;;1.90;;
45254;SDS011;30989;52.078;21.014;2023-08-24T00:40:57;4.05;;;1.98;;
45254;SDS011;30989;52.078;21.014;2023-08-24T00:43:25;3.53;;;2.15;;
45254;SDS011;30989;52.078;21.014;2023-08-24T00:45:51;4.85;;;2.10;;
45254;SDS011;30989;52.078;21.014;2023-08-24T00:48:20;6.53;;;2.20;;
45254;SDS011;30989;52.078;21.014;2023-08-24T00:50:51;4.03;;;2.30;;
45254;SDS011;30989;52.078;21.014;2023-08-24T00:53:18;4.68;;;2.17;;
45254;SDS011;30989;52.078;21.014;2023-08-24T00:55:46;5.72;;;2.30;;
45254;SDS011;30989;52.078;21.014;2023-08-24T00:58:11;4.68;;;2.60;;
45254;SDS011;30989;52.078;21.014;2023-08-24T01:00:38;6.28;;;2.30;;
45254;SDS011;30989;52.078;21.014;2023-08-24T01:03:03;5.38;;;1.90;;
45254;SDS011;30989;52.078;21.014;2023-08-24T01:05:29;8.23;;;2.55;;
45254;SDS011;30989;52.078;21.014;2023-08-24T01:07:55;4.15;;;2.28;;
45254;SDS011;30989;52.078;21.014;2023-08-24T01:10:20;5.63;;;2.20;;
45254;SDS011;30989;52.078;21.014;2023-08-24T01:15:37;4.07;;;2.17;;
45254;SDS011;30989;52.078;21.014;2023-08-24T01:18:11;4.70;;;2.38;;
45254;SDS011;30989;52.078;21.014;2023-08-24T01:20:40;8.73;;;2.30;;
45254;SDS011;30989;52.078;21.014;2023-08-24T01:28:45;5.68;;;2.35;;
45254;SDS011;30989;52.078;21.014;2023-08-24T01:31:15;6.32;;;2.17;;
45254;SDS011;30989;52.078;21.014;2023-08-24T01:33:42;2.90;;;1.88;;
45254;SDS011;30989;52.078;21.014;2023-08-24T01:36:12;6.93;;;1.77;;
45254;SDS011;30989;52.078;21.014;2023-08-24T01:38:38;3.55;;;1.98;;
45254;SDS011;30989;52.078;21.014;2023-08-24T01:43:30;4.15;;;1.90;;
45254;SDS011;30989;52.078;21.014;2023-08-24T01:45:58;3.80;;;1.90;;
45254;SDS011;30989;52.078;21.014;2023-08-24T01:48:25;3.20;;;1.90;;
45254;SDS011;30989;52.078;21.014;2023-08-24T01:50:51;5.97;;;1.98;;
45254;SDS011;30989;52.078;21.014;2023-08-24T01:53:17;3.47;;;1.90;;
45254;SDS011;30989;52.078;21.014;2023-08-24T01:55:44;10.25;;;2.00;;
45254;SDS011;30989;52.078;21.014;2023-08-24T01:58:11;4.65;;;2.28;;
45254;SDS011;30989;52.078;21.014;2023-08-24T02:00:37;3.33;;;1.85;;
45254;SDS011;30989;52.078;21.014;2023-08-24T02:03:03;6.70;;;2.25;;
45254;SDS011;30989;52.078;21.014;2023-08-24T02:05:29;5.93;;;2.70;;
45254;SDS011;30989;52.078;21.014;2023-08-24T02:07:54;3.80;;;1.67;;
45254;SDS011;30989;52.078;21.014;2023-08-24T02:10:21;4.97;;;1.63;;
45254;SDS011;30989;52.078;21.014;2023-08-24T02:12:47;6.03;;;1.95;;
45254;SDS011;30989;52.078;21.014;2023-08-24T02:15:13;4.97;;;2.00;;
45254;SDS011;30989;52.078;21.014;2023-08-24T02:17:38;3.33;;;2.00;;
45254;SDS011;30989;52.078;21.014;2023-08-24T02:20:04;3.75;;;1.90;;
45254;SDS011;30989;52.078;21.014;2023-08-24T02:22:30;6.22;;;1.90;;
45254;SDS011;30989;52.078;21.014;2023-08-24T02:24:56;4.78;;;2.30;;
45254;SDS011;30989;52.078;21.014;2023-08-24T02:27:22;4.20;;;2.00;;
45254;SDS011;30989;52.078;21.014;2023-08-24T02:29:50;4.30;;;2.42;;
45254;SDS011;30989;52.078;21.014;2023-08-24T02:32:15;4.10;;;2.22;;
45254;SDS011;30989;52.078;21.014;2023-08-24T02:34:41;4.05;;;1.77;;
45254;SDS011;30989;52.078;21.014;2023-08-24T02:37:06;6.15;;;2.47;;
45254;SDS011;30989;52.078;21.014;2023-08-24T02:39:32;5.20;;;2.60;;
45254;SDS011;30989;52.078;21.014;2023-08-24T02:41:57;6.70;;;2.30;;
45254;SDS011;30989;52.078;21.014;2023-08-24T02:44:23;4.70;;;2.08;;
45254;SDS011;30989;52.078;21.014;2023-08-24T02:46:48;5.22;;;2.17;;
45254;SDS011;30989;52.078;21.014;2023-08-24T02:49:16;5.60;;;2.33;;
45254;SDS011;30989;52.078;21.014;2023-08-24T02:51:43;7.65;;;2.42;;
45254;SDS011;30989;52.078;21.014;2023-08-24T02:54:08;4.00;;;2.10;;
45254;SDS011;30989;52.078;21.014;2023-08-24T02:56:33;5.43;;;2.13;;
45254;SDS011;30989;52.078;21.014;2023-08-24T02:58:59;7.15;;;1.90;;
45254;SDS011;30989;52.078;21.014;2023-08-24T03:01:25;6.63;;;2.00;;
45254;SDS011;30989;52.078;21.014;2023-08-24T03:03:51;2.65;;;1.70;;
45254;SDS011;30989;52.078;21.014;2023-08-24T03:06:17;6.25;;;2.17;;
45254;SDS011;30989;52.078;21.014;2023-08-24T03:08:42;5.00;;;2.33;;
45254;SDS011;30989;52.078;21.014;2023-08-24T03:11:08;5.18;;;2.00;;
45254;SDS011;30989;52.078;21.014;2023-08-24T03:13:35;7.40;;;2.15;;
45254;SDS011;30989;52.078;21.014;2023-08-24T03:16:05;4.50;;;1.77;;
45254;SDS011;30989;52.078;21.014;2023-08-24T03:18:32;3.70;;;1.90;;
45254;SDS011;30989;52.078;21.014;2023-08-24T03:20:57;4.88;;;1.90;;
45254;SDS011;30989;52.078;21.014;2023-08-24T03:23:23;5.72;;;2.20;;
45254;SDS011;30989;52.078;21.014;2023-08-24T03:25:48;14.93;;;6.43;;
45254;SDS011;30989;52.078;21.014;2023-08-24T03:28:14;7.95;;;3.28;;
45254;SDS011;30989;52.078;21.014;2023-08-24T03:30:44;10.30;;;4.93;;
45254;SDS011;30989;52.078;21.014;2023-08-24T03:33:12;10.05;;;4.30;;
45254;SDS011;30989;52.078;21.014;2023-08-24T03:35:39;8.95;;;3.38;;
45254;SDS011;30989;52.078;21.014;2023-08-24T03:38:05;12.18;;;4.80;;
45254;SDS011;30989;52.078;21.014;2023-08-24T03:40:30;8.20;;;3.38;;
45254;SDS011;30989;52.078;21.014;2023-08-24T03:42:56;5.38;;;2.80;;
45254;SDS011;30989;52.078;21.014;2023-08-24T03:45:21;5.47;;;2.17;;
45254;SDS011;30989;52.078;21.014;2023-08-24T03:47:47;4.22;;;2.28;;
45254;SDS011;30989;52.078;21.014;2023-08-24T03:50:13;4.90;;;2.83;;
45254;SDS011;30989;52.078;21.014;2023-08-24T03:52:40;12.88;;;5.68;;
45254;SDS011;30989;52.078;21.014;2023-08-24T03:55:06;9.90;;;5.03;;
45254;SDS011;30989;52.078;21.014;2023-08-24T03:57:32;7.32;;;3.78;;
45254;SDS011;30989;52.078;21.014;2023-08-24T03:59:57;9.90;;;3.65;;
45254;SDS011;30989;52.078;21.014;2023-08-24T04:02:22;7.05;;;3.50;;
45254;SDS011;30989;52.078;21.014;2023-08-24T04:04:48;14.73;;;4.93;;
45254;SDS011;30989;52.078;21.014;2023-08-24T04:07:15;7.13;;;3.88;;
45254;SDS011;30989;52.078;21.014;2023-08-24T04:09:41;5.38;;;2.30;;
45254;SDS011;30989;52.078;21.014;2023-08-24T04:12:06;5.20;;;2.78;;
45254;SDS011;30989;52.078;21.014;2023-08-24T04:14:32;7.25;;;2.92;;
45254;SDS011;30989;52.078;21.014;2023-08-24T04:16:57;8.43;;;2.90;;
45254;SDS011;30989;52.078;21.014;2023-08-24T04:19:23;6.25;;;3.13;;
45254;SDS011;30989;52.078;21.014;2023-08-24T04:21:54;13.93;;;3.20;;
45254;SDS011;30989;52.078;21.014;2023-08-24T04:24:20;6.45;;;2.70;;
45254;SDS011;30989;52.078;21.014;2023-08-24T04:26:45;8.57;;;3.78;;
45254;SDS011;30989;52.078;21.014;2023-08-24T04:29:11;7.75;;;3.40;;
45254;SDS011;30989;52.078;21.014;2023-08-24T04:31:36;9.05;;;3.38;;
45254;SDS011;30989;52.078;21.014;2023-08-24T04:34:02;9.57;;;3.58;;
45254;SDS011;30989;52.078;21.014;2023-08-24T04:36:29;9.60;;;3.17;;
45254;SDS011;30989;52.078;21.014;2023-08-24T04:38:54;6.45;;;2.42;;
45254;SDS011;30989;52.078;21.014;2023-08-24T04:41:20;10.02;;;3.22;;
45254;SDS011;30989;52.078;21.014;2023-08-24T04:43:45;8.10;;;3.10;;
45254;SDS011;30989;52.078;21.014;2023-08-24T04:46:11;11.30;;;5.80;;
45254;SDS011;30989;52.078;21.014;2023-08-24T04:48:36;7.43;;;3.90;;
45254;SDS011;30989;52.078;21.014;2023-08-24T04:51:02;9.57;;;2.88;;
45254;SDS011;30989;52.078;21.014;2023-08-24T04:53:28;6.93;;;2.55;;
45254;SDS011;30989;52.078;21.014;2023-08-24T04:55:53;5.47;;;2.35;;
45254;SDS011;30989;52.078;21.014;2023-08-24T04:58:19;6.30;;;2.58;;
45254;SDS011;30989;52.078;21.014;2023-08-24T05:00:45;6.93;;;2.10;;
45254;SDS011;30989;52.078;21.014;2023-08-24T05:03:10;5.00;;;2.00;;
45254;SDS011;30989;52.078;21.014;2023-08-24T05:05:36;7.55;;;2.58;;
45254;SDS011;30989;52.078;21.014;2023-08-24T05:08:02;10.55;;;2.25;;
45254;SDS011;30989;52.078;21.014;2023-08-24T05:10:32;6.10;;;2.40;;
45254;SDS011;30989;52.078;21.014;2023-08-24T05:12:58;6.72;;;2.00;;
45254;SDS011;30989;52.078;21.014;2023-08-24T05:15:24;7.25;;;2.30;;
45254;SDS011;30989;52.078;21.014;2023-08-24T05:17:50;7.47;;;2.42;;
45254;SDS011;30989;52.078;21.014;2023-08-24T05:20:19;7.63;;;2.17;;
45254;SDS011;30989;52.078;21.014;2023-08-24T05:22:48;3.88;;;2.03;;
45254;SDS011;30989;52.078;21.014;2023-08-24T05:25:13;11.50;;;2.42;;
45254;SDS011;30989;52.078;21.014;2023-08-24T05:27:41;6.82;;;2.25;;
45254;SDS011;30989;52.078;21.014;2023-08-24T05:30:07;6.57;;;2.70;;
45254;SDS011;30989;52.078;21.014;2023-08-24T05:32:34;5.80;;;3.15;;
45254;SDS011;30989;52.078;21.014;2023-08-24T05:35:06;10.93;;;3.63;;
45254;SDS011;30989;52.078;21.014;2023-08-24T05:37:32;5.40;;;2.72;;
45254;SDS011;30989;52.078;21.014;2023-08-24T05:39:59;7.93;;;2.38;;
45254;SDS011;30989;52.078;21.014;2023-08-24T05:42:25;6.45;;;3.42;;
45254;SDS011;30989;52.078;21.014;2023-08-24T05:44:50;10.93;;;3.42;;
45254;SDS011;30989;52.078;21.014;2023-08-24T05:47:16;10.90;;;3.03;;
45254;SDS011;30989;52.078;21.014;2023-08-24T05:49:41;8.25;;;3.22;;
45254;SDS011;30989;52.078;21.014;2023-08-24T05:52:07;8.75;;;2.67;;
45254;SDS011;30989;52.078;21.014;2023-08-24T05:54:32;8.98;;;2.92;;
45254;SDS011;30989;52.078;21.014;2023-08-24T05:56:58;12.63;;;2.55;;
45254;SDS011;30989;52.078;21.014;2023-08-24T05:59:28;13.32;;;3.25;;
45254;SDS011;30989;52.078;21.014;2023-08-24T06:01:54;11.45;;;2.53;;
45254;SDS011;30989;52.078;21.014;2023-08-24T06:04:19;6.47;;;2.67;;
45254;SDS011;30989;52.078;21.014;2023-08-24T06:06:44;6.75;;;2.28;;
45254;SDS011;30989;52.078;21.014;2023-08-24T06:09:10;9.30;;;2.65;;
45254;SDS011;30989;52.078;21.014;2023-08-24T06:11:38;8.80;;;2.72;;
45254;SDS011;30989;52.078;21.014;2023-08-24T06:14:05;4.00;;;1.77;;
45254;SDS011;30989;52.078;21.014;2023-08-24T06:16:34;4.93;;;2.03;;
45254;SDS011;30989;52.078;21.014;2023-08-24T06:18:59;5.22;;;2.10;;
45254;SDS011;30989;52.078;21.014;2023-08-24T06:21:24;3.90;;;2.10;;
45254;SDS011;30989;52.078;21.014;2023-08-24T06:23:50;7.78;;;2.28;;
45254;SDS011;30989;52.078;21.014;2023-08-24T06:26:16;3.85;;;2.17;;
45254;SDS011;30989;52.078;21.014;2023-08-24T06:28:42;7.25;;;2.33;;
45254;SDS011;30989;52.078;21.014;2023-08-24T06:31:08;9.35;;;2.40;;
45254;SDS011;30989;52.078;21.014;2023-08-24T06:33:34;4.55;;;1.75;;
45254;SDS011;30989;52.078;21.014;2023-08-24T06:36:00;5.15;;;1.90;;
45254;SDS011;30989;52.078;21.014;2023-08-24T06:38:33;7.38;;;2.15;;
45254;SDS011;30989;52.078;21.014;2023-08-24T06:40:58;10.30;;;1.88;;
45254;SDS011;30989;52.078;21.014;2023-08-24T06:43:25;4.55;;;1.40;;
45254;SDS011;30989;52.078;21.014;2023-08-24T06:45:54;3.33;;;1.65;;
45254;SDS011;30989;52.078;21.014;2023-08-24T06:48:20;5.88;;;1.65;;
45254;SDS011;30989;52.078;21.014;2023-08-24T06:50:46;5.90;;;2.13;;
45254;SDS011;30989;52.078;21.014;2023-08-24T06:53:11;3.83;;;1.70;;
45254;SDS011;30989;52.078;21.014;2023-08-24T06:55:37;6.07;;;1.90;;
45254;SDS011;30989;52.078;21.014;2023-08-24T06:58:02;3.95;;;1.83;;
45254;SDS011;30989;52.078;21.014;2023-08-24T07:00:30;5.53;;;1.75;;
45254;SDS011;30989;52.078;21.014;2023-08-24T07:02:56;6.38;;;1.90;;
45254;SDS011;30989;52.078;21.014;2023-08-24T07:05:22;4.75;;;1.67;;
45254;SDS011;30989;52.078;21.014;2023-08-24T07:07:51;4.05;;;1.50;;
45254;SDS011;30989;52.078;21.014;2023-08-24T07:10:18;7.75;;;1.70;;
45254;SDS011;30989;52.078;21.014;2023-08-24T07:12:44;7.60;;;1.73;;
45254;SDS011;30989;52.078;21.014;2023-08-24T07:15:13;3.97;;;1.63;;
45254;SDS011;30989;52.078;21.014;2023-08-24T07:17:39;6.18;;;2.00;;
45254;SDS011;30989;52.078;21.014;2023-08-24T07:20:05;4.93;;;2.22;;
45254;SDS011;30989;52.078;21.014;2023-08-24T07:22:31;3.60;;;1.77;;
45254;SDS011;30989;52.078;21.014;2023-08-24T07:24:57;5.93;;;1.60;;
45254;SDS011;30989;52.078;21.014;2023-08-24T07:27:23;5.72;;;1.60;;
45254;SDS011;30989;52.078;21.014;2023-08-24T07:29:48;3.50;;;1.45;;
45254;SDS011;30989;52.078;21.014;2023-08-24T07:32:13;5.57;;;1.58;;
45254;SDS011;30989;52.078;21.014;2023-08-24T07:34:39;4.55;;;1.67;;
45254;SDS011;30989;52.078;21.014;2023-08-24T07:37:05;5.60;;;1.67;;
45254;SDS011;30989;52.078;21.014;2023-08-24T07:39:31;3.78;;;1.85;;
45254;SDS011;30989;52.078;21.014;2023-08-24T07:41:57;5.03;;;1.50;;
45254;SDS011;30989;52.078;21.014;2023-08-24T07:44:23;4.70;;;1.40;;
45254;SDS011;30989;52.078;21.014;2023-08-24T07:46:48;5.45;;;1.70;;
45254;SDS011;30989;52.078;21.014;2023-08-24T07:49:14;5.03;;;1.58;;
45254;SDS011;30989;52.078;21.014;2023-08-24T07:51:40;5.63;;;1.60;;
45254;SDS011;30989;52.078;21.014;2023-08-24T07:54:07;4.88;;;1.92;;
45254;SDS011;30989;52.078;21.014;2023-08-24T07:56:32;4.43;;;1.50;;
45254;SDS011;30989;52.078;21.014;2023-08-24T07:58:58;4.38;;;1.50;;
45254;SDS011;30989;52.078;21.014;2023-08-24T08:01:23;3.35;;;1.38;;
45254;SDS011;30989;52.078;21.014;2023-08-24T08:03:49;4.10;;;1.90;;
45254;SDS011;30989;52.078;21.014;2023-08-24T08:06:15;4.93;;;1.58;;
45254;SDS011;30989;52.078;21.014;2023-08-24T08:08:40;4.90;;;1.52;;
45254;SDS011;30989;52.078;21.014;2023-08-24T08:11:05;4.40;;;1.58;;
45254;SDS011;30989;52.078;21.014;2023-08-24T08:13:31;5.57;;;1.20;;
45254;SDS011;30989;52.078;21.014;2023-08-24T08:16:03;3.67;;;1.50;;
45254;SDS011;30989;52.078;21.014;2023-08-24T08:18:29;5.03;;;1.63;;
45254;SDS011;30989;52.078;21.014;2023-08-24T08:20:55;3.85;;;1.65;;
45254;SDS011;30989;52.078;21.014;2023-08-24T08:23:20;3.63;;;1.38;;
45254;SDS011;30989;52.078;21.014;2023-08-24T08:25:46;2.75;;;1.30;;
45254;SDS011;30989;52.078;21.014;2023-08-24T08:28:11;4.93;;;1.40;;
45254;SDS011;30989;52.078;21.014;2023-08-24T08:30:37;3.85;;;1.45;;
45254;SDS011;30989;52.078;21.014;2023-08-24T08:33:02;5.13;;;1.50;;
45254;SDS011;30989;52.078;21.014;2023-08-24T08:35:28;3.35;;;1.33;;
45254;SDS011;30989;52.078;21.014;2023-08-24T08:37:53;7.03;;;1.70;;
45254;SDS011;30989;52.078;21.014;2023-08-24T08:40:19;2.75;;;1.13;;
45254;SDS011;30989;52.078;21.014;2023-08-24T08:42:45;3.22;;;1.50;;
45254;SDS011;30989;52.078;21.014;2023-08-24T08:45:11;3.58;;;1.80;;
45254;SDS011;30989;52.078;21.014;2023-08-24T08:47:37;3.40;;;1.35;;
45254;SDS011;30989;52.078;21.014;2023-08-24T08:50:03;5.35;;;1.45;;
45254;SDS011;30989;52.078;21.014;2023-08-24T08:52:30;4.40;;;1.42;;
45254;SDS011;30989;52.078;21.014;2023-08-24T08:54:56;10.18;;;1.70;;
45254;SDS011;30989;52.078;21.014;2023-08-24T08:57:23;6.03;;;1.33;;
45254;SDS011;30989;52.078;21.014;2023-08-24T08:59:50;6.10;;;1.63;;
45254;SDS011;30989;52.078;21.014;2023-08-24T09:02:19;6.25;;;1.50;;
45254;SDS011;30989;52.078;21.014;2023-08-24T09:04:47;2.45;;;1.13;;
45254;SDS011;30989;52.078;21.014;2023-08-24T09:07:15;3.83;;;1.45;;
45254;SDS011;30989;52.078;21.014;2023-08-24T09:09:41;6.28;;;1.58;;
45254;SDS011;30989;52.078;21.014;2023-08-24T09:12:08;3.13;;;1.10;;
45254;SDS011;30989;52.078;21.014;2023-08-24T09:14:34;4.07;;;1.20;;
45254;SDS011;30989;52.078;21.014;2023-08-24T09:17:00;4.88;;;1.33;;
45254;SDS011;30989;52.078;21.014;2023-08-24T09:19:27;5.32;;;1.55;;
45254;SDS011;30989;52.078;21.014;2023-08-24T09:22:00;5.18;;;1.60;;
45254;SDS011;30989;52.078;21.014;2023-08-24T09:24:30;4.82;;;1.40;;
45254;SDS011;30989;52.078;21.014;2023-08-24T09:27:19;6.50;;;1.63;;
45254;SDS011;30989;52.078;21.014;2023-08-24T09:29:48;3.45;;;1.20;;
45254;SDS011;30989;52.078;21.014;2023-08-24T09:32:29;3.63;;;1.50;;
45254;SDS011;30989;52.078;21.014;2023-08-24T09:34:55;6.07;;;2.13;;
45254;SDS011;30989;52.078;21.014;2023-08-24T09:37:21;4.60;;;1.40;;
45254;SDS011;30989;52.078;21.014;2023-08-24T09:39:47;4.43;;;1.13;;
45254;SDS011;30989;52.078;21.014;2023-08-24T09:42:13;3.75;;;1.45;;
45254;SDS011;30989;52.078;21.014;2023-08-24T09:44:45;5.75;;;1.25;;
45254;SDS011;30989;52.078;21.014;2023-08-24T09:47:13;7.95;;;1.52;;
45254;SDS011;30989;52.078;21.014;2023-08-24T09:49:38;5.20;;;1.45;;
45254;SDS011;30989;52.078;21.014;2023-08-24T09:52:07;3.45;;;1.33;;
45254;SDS011;30989;52.078;21.014;2023-08-24T09:54:36;5.82;;;1.58;;
45254;SDS011;30989;52.078;21.014;2023-08-24T09:57:02;4.43;;;1.85;;
45254;SDS011;30989;52.078;21.014;2023-08-24T09:59:32;4.80;;;1.27;;
45254;SDS011;30989;52.078;21.014;2023-08-24T10:01:58;3.95;;;1.15;;
45254;SDS011;30989;52.078;21.014;2023-08-24T10:04:28;3.13;;;1.38;;
45254;SDS011;30989;52.078;21.014;2023-08-24T10:10:25;3.33;;;1.20;;
45254;SDS011;30989;52.078;21.014;2023-08-24T10:12:28;5.15;;;1.13;;
45254;SDS011;30989;52.078;21.014;2023-08-24T10:15:02;4.95;;;2.08;;
45254;SDS011;30989;52.078;21.014;2023-08-24T10:17:31;5.78;;;1.33;;
45254;SDS011;30989;52.078;21.014;2023-08-24T10:19:58;1.90;;;0.90;;
45254;SDS011;30989;52.078;21.014;2023-08-24T10:22:26;2.17;;;1.20;;
45254;SDS011;30989;52.078;21.014;2023-08-24T10:24:54;4.20;;;1.25;;
45254;SDS011;30989;52.078;21.014;2023-08-24T10:27:21;3.25;;;1.45;;
45254;SDS011;30989;52.078;21.014;2023-08-24T10:29:48;3.17;;;0.85;;
45254;SDS011;30989;52.078;21.014;2023-08-24T10:32:14;3.67;;;1.50;;
45254;SDS011;30989;52.078;21.014;2023-08-24T10:34:40;3.83;;;1.38;;
45254;SDS011;30989;52.078;21.014;2023-08-24T10:37:08;4.63;;;1.30;;
45254;SDS011;30989;52.078;21.014;2023-08-24T10:39:35;2.65;;;1.20;;
45254;SDS011;30989;52.078;21.014;2023-08-24T10:42:03;2.63;;;1.20;;
45254;SDS011;30989;52.078;21.014;2023-08-24T10:44:35;4.40;;;1.25;;
45254;SDS011;30989;52.078;21.014;2023-08-24T10:47:12;4.28;;;1.20;;
45254;SDS011;30989;52.078;21.014;2023-08-24T10:49:40;3.70;;;1.50;;
45254;SDS011;30989;52.078;21.014;2023-08-24T10:55:03;9.30;;;1.40;;
45254;SDS011;30989;52.078;21.014;2023-08-24T10:57:36;2.53;;;1.10;;
45254;SDS011;30989;52.078;21.014;2023-08-24T11:00:09;3.00;;;1.40;;
45254;SDS011;30989;52.078;21.014;2023-08-24T11:02:49;3.28;;;1.45;;
45254;SDS011;30989;52.078;21.014;2023-08-24T11:05:26;2.83;;;1.38;;
45254;SDS011;30989;52.078;21.014;2023-08-24T11:07:56;6.75;;;1.35;;
45254;SDS011;30989;52.078;21.014;2023-08-24T11:10:25;3.55;;;1.42;;
45254;SDS011;30989;52.078;21.014;2023-08-24T11:15:37;3.40;;;1.33;;
45254;SDS011;30989;52.078;21.014;2023-08-24T11:18:21;3.53;;;1.50;;
45254;SDS011;30989;52.078;21.014;2023-08-24T11:20:52;2.53;;;1.20;;
45254;SDS011;30989;52.078;21.014;2023-08-24T11:23:22;3.15;;;1.40;;
45254;SDS011;30989;52.078;21.014;2023-08-24T11:25:49;6.60;;;1.30;;
45254;SDS011;30989;52.078;21.014;2023-08-24T11:28:23;8.70;;;1.42;;
45254;SDS011;30989;52.078;21.014;2023-08-24T11:30:50;3.80;;;1.50;;
45254;SDS011;30989;52.078;21.014;2023-08-24T11:33:16;4.65;;;1.35;;
45254;SDS011;30989;52.078;21.014;2023-08-24T11:35:51;2.15;;;1.30;;
45254;SDS011;30989;52.078;21.014;2023-08-24T11:38:18;3.08;;;1.20;;
45254;SDS011;30989;52.078;21.014;2023-08-24T11:40:43;4.18;;;1.27;;
45254;SDS011;30989;52.078;21.014;2023-08-24T11:43:09;5.95;;;1.20;;
45254;SDS011;30989;52.078;21.014;2023-08-24T11:45:35;6.35;;;1.30;;
45254;SDS011;30989;52.078;21.014;2023-08-24T11:48:02;2.25;;;1.10;;
45254;SDS011;30989;52.078;21.014;2023-08-24T11:50:32;3.80;;;1.35;;
45254;SDS011;30989;52.078;21.014;2023-08-24T11:53:00;5.78;;;1.38;;
45254;SDS011;30989;52.078;21.014;2023-08-24T11:55:26;4.32;;;1.50;;
45254;SDS011;30989;52.078;21.014;2023-08-24T11:57:51;3.95;;;1.40;;
45254;SDS011;30989;52.078;21.014;2023-08-24T12:00:18;2.28;;;1.25;;
45254;SDS011;30989;52.078;21.014;2023-08-24T12:02:46;5.60;;;1.40;;
45254;SDS011;30989;52.078;21.014;2023-08-24T12:05:22;4.85;;;1.40;;
45254;SDS011;30989;52.078;21.014;2023-08-24T12:07:49;3.08;;;1.48;;
45254;SDS011;30989;52.078;21.014;2023-08-24T12:10:16;3.65;;;1.52;;
45254;SDS011;30989;52.078;21.014;2023-08-24T12:12:41;3.00;;;1.05;;
45254;SDS011;30989;52.078;21.014;2023-08-24T12:15:07;2.80;;;1.67;;
45254;SDS011;30989;52.078;21.014;2023-08-24T12:17:42;6.97;;;1.80;;
45254;SDS011;30989;52.078;21.014;2023-08-24T12:20:15;9.15;;;1.70;;
45254;SDS011;30989;52.078;21.014;2023-08-24T12:22:42;3.55;;;1.25;;
45254;SDS011;30989;52.078;21.014;2023-08-24T12:25:08;3.55;;;1.40;;
45254;SDS011;30989;52.078;21.014;2023-08-24T12:27:33;3.08;;;1.50;;
45254;SDS011;30989;52.078;21.014;2023-08-24T12:30:02;3.95;;;1.15;;
45254;SDS011;30989;52.078;21.014;2023-08-24T12:32:41;2.95;;;1.10;;
45254;SDS011;30989;52.078;21.014;2023-08-24T12:35:13;3.85;;;1.17;;
45254;SDS011;30989;52.078;21.014;2023-08-24T12:37:39;5.78;;;1.70;;
45254;SDS011;30989;52.078;21.014;2023-08-24T12:40:05;3.75;;;1.17;;
45254;SDS011;30989;52.078;21.014;2023-08-24T12:42:32;5.78;;;1.55;;
45254;SDS011;30989;52.078;21.014;2023-08-24T12:44:58;2.92;;;1.20;;
45254;SDS011;30989;52.078;21.014;2023-08-24T12:47:23;3.28;;;1.40;;
45254;SDS011;30989;52.078;21.014;2023-08-24T12:49:49;2.15;;;1.25;;
45254;SDS011;30989;52.078;21.014;2023-08-24T12:52:16;4.63;;;1.60;;
45254;SDS011;30989;52.078;21.014;2023-08-24T12:54:41;2.33;;;1.40;;
45254;SDS011;30989;52.078;21.014;2023-08-24T12:57:07;2.58;;;1.50;;
45254;SDS011;30989;52.078;21.014;2023-08-24T12:59:33;4.55;;;1.60;;
45254;SDS011;30989;52.078;21.014;2023-08-24T13:01:58;4.68;;;1.30;;
45254;SDS011;30989;52.078;21.014;2023-08-24T13:04:24;2.70;;;1.30;;
45254;SDS011;30989;52.078;21.014;2023-08-24T13:06:49;2.75;;;1.25;;
45254;SDS011;30989;52.078;21.014;2023-08-24T13:09:15;1.98;;;0.93;;
45254;SDS011;30989;52.078;21.014;2023-08-24T13:11:40;4.70;;;1.50;;
45254;SDS011;30989;52.078;21.014;2023-08-24T13:14:05;5.13;;;1.77;;
45254;SDS011;30989;52.078;21.014;2023-08-24T13:16:31;6.18;;;1.35;;
45254;SDS011;30989;52.078;21.014;2023-08-24T13:18:56;3.88;;;1.23;;
45254;SDS011;30989;52.078;21.014;2023-08-24T13:21:24;4.22;;;1.50;;
45254;SDS011;30989;52.078;21.014;2023-08-24T13:23:51;5.47;;;1.50;;
45254;SDS011;30989;52.078;21.014;2023-08-24T13:26:17;4.72;;;1.70;;
45254;SDS011;30989;52.078;21.014;2023-08-24T13:28:49;1.97;;;1.03;;
45254;SDS011;30989;52.078;21.014;2023-08-24T13:31:15;5.38;;;1.60;;
45254;SDS011;30989;52.078;21.014;2023-08-24T13:33:41;4.72;;;1.50;;
45254;SDS011;30989;52.078;21.014;2023-08-24T13:36:07;5.00;;;1.60;;
45254;SDS011;30989;52.078;21.014;2023-08-24T13:38:32;5.45;;;1.60;;
45254;SDS011;30989;52.078;21.014;2023-08-24T13:40:57;9.75;;;2.25;;
45254;SDS011;30989;52.078;21.014;2023-08-24T13:43:23;3.40;;;1.30;;
45254;SDS011;30989;52.078;21.014;2023-08-24T13:45:48;2.83;;;1.02;;
45254;SDS011;30989;52.078;21.014;2023-08-24T13:48:14;2.00;;;1.00;;
45254;SDS011;30989;52.078;21.014;2023-08-24T13:50:49;1.95;;;0.95;;
45254;SDS011;30989;52.078;21.014;2023-08-24T13:53:15;5.13;;;1.20;;
45254;SDS011;30989;52.078;21.014;2023-08-24T13:55:41;8.88;;;1.85;;
45254;SDS011;30989;52.078;21.014;2023-08-24T13:58:06;8.27;;;1.35;;
45254;SDS011;30989;52.078;21.014;2023-08-24T14:00:31;3.90;;;1.50;;
45254;SDS011;30989;52.078;21.014;2023-08-24T14:02:57;7.78;;;1.60;;
45254;SDS011;30989;52.078;21.014;2023-08-24T14:05:22;3.95;;;1.52;;
45254;SDS011;30989;52.078;21.014;2023-08-24T14:07:48;2.08;;;1.08;;
45254;SDS011;30989;52.078;21.014;2023-08-24T14:10:14;2.95;;;1.60;;
45254;SDS011;30989;52.078;21.014;2023-08-24T14:12:39;2.90;;;1.17;;
45254;SDS011;30989;52.078;21.014;2023-08-24T14:15:04;2.33;;;1.20;;
45254;SDS011;30989;52.078;21.014;2023-08-24T14:17:31;3.95;;;1.30;;
45254;SDS011;30989;52.078;21.014;2023-08-24T14:19:57;2.97;;;1.38;;
45254;SDS011;30989;52.078;21.014;2023-08-24T14:22:22;5.50;;;1.65;;
45254;SDS011;30989;52.078;21.014;2023-08-24T14:24:48;11.02;;;1.80;;
45254;SDS011;30989;52.078;21.014;2023-08-24T14:27:14;2.72;;;1.58;;
45254;SDS011;30989;52.078;21.014;2023-08-24T14:29:39;3.47;;;1.38;;
45254;SDS011;30989;52.078;21.014;2023-08-24T14:32:05;2.70;;;1.40;;
45254;SDS011;30989;52.078;21.014;2023-08-24T14:34:30;6.55;;;1.38;;
45254;SDS011;30989;52.078;21.014;2023-08-24T14:36:55;8.48;;;2.00;;
45254;SDS011;30989;52.078;21.014;2023-08-24T14:39:21;4.20;;;1.40;;
45254;SDS011;30989;52.078;21.014;2023-08-24T14:41:46;3.70;;;1.63;;
45254;SDS011;30989;52.078;21.014;2023-08-24T14:44:12;3.85;;;2.33;;
45254;SDS011;30989;52.078;21.014;2023-08-24T14:46:37;8.25;;;1.92;;
45254;SDS011;30989;52.078;21.014;2023-08-24T14:49:03;3.30;;;1.50;;
45254;SDS011;30989;52.078;21.014;2023-08-24T14:51:29;4.75;;;1.40;;